createdAt,value
2023-09-17T00:00:28.095Z,101066.03
2023-09-17T00:01:30.175Z,101060.19
2023-09-17T00:02:33.085Z,101062.81
2023-09-17T00:03:35.312Z,101064.91
2023-09-17T00:04:37.448Z,101071.84
2023-09-17T00:05:39.380Z,101062.25
2023-09-17T00:06:42.367Z,101069.41
2023-09-17T00:07:44.763Z,101067.00
2023-09-17T00:08:46.757Z,101064.34
2023-09-17T00:09:48.687Z,101070.44
2023-09-17T00:10:50.758Z,101064.34
2023-09-17T00:11:52.794Z,101068.03
2023-09-17T00:12:59.198Z,101072.53
2023-09-17T00:14:01.350Z,101064.84
2023-09-17T00:15:04.082Z,101067.50
2023-09-17T00:16:06.639Z,101065.06
2023-09-17T00:17:08.874Z,101062.91
2023-09-17T00:18:11.194Z,101066.59
2023-09-17T00:19:14.265Z,101065.22
2023-09-17T00:20:17.086Z,101067.31
2023-09-17T00:21:19.017Z,101074.72
2023-09-17T00:22:21.484Z,101066.16
2023-09-17T00:23:23.586Z,101068.03
2023-09-17T00:24:26.539Z,101068.50
2023-09-17T00:25:29.666Z,101071.16
2023-09-17T00:26:31.889Z,101070.38
2023-09-17T00:27:34.676Z,101073.22
2023-09-17T00:28:37.189Z,101066.31
2023-09-17T00:29:39.602Z,101076.38
2023-09-17T00:30:41.620Z,101066.03
2023-09-17T00:31:44.359Z,101072.56
2023-09-17T00:32:47.061Z,101067.19
2023-09-17T00:33:49.380Z,101069.84
2023-09-17T00:34:51.446Z,101069.53
2023-09-17T00:35:53.345Z,101067.91
2023-09-17T00:36:55.205Z,101068.94
2023-09-17T00:37:57.158Z,101066.28
2023-09-17T00:38:59.041Z,101072.63
2023-09-17T00:40:00.928Z,101072.63
2023-09-17T00:41:02.903Z,101070.22
2023-09-17T00:42:05.217Z,101069.88
2023-09-17T00:43:07.921Z,101075.19
2023-09-17T00:44:10.128Z,101071.97
2023-09-17T00:45:13.316Z,101067.13
2023-09-17T00:46:15.704Z,101062.09
2023-09-17T00:47:18.099Z,101077.41
2023-09-17T00:48:21.099Z,101063.38
2023-09-17T00:49:23.977Z,101072.38
2023-09-17T00:50:26.674Z,101065.44
2023-09-17T00:51:28.928Z,101069.13
2023-09-17T00:52:34.411Z,101063.84
2023-09-17T00:53:37.105Z,101068.31
2023-09-17T00:54:39.420Z,101057.72
2023-09-17T00:55:41.934Z,101062.22
2023-09-17T00:56:44.425Z,101063.28
2023-09-17T00:57:46.866Z,101060.63
2023-09-17T00:58:51.632Z,101064.06
2023-09-17T00:59:53.826Z,101063.53
2023-09-17T01:00:59.359Z,101073.06
2023-09-17T01:02:02.966Z,101068.00
2023-09-17T01:03:07.959Z,101063.28
2023-09-17T01:04:10.338Z,101060.38
2023-09-17T01:05:12.450Z,101061.19
2023-09-17T01:06:14.631Z,101061.19
2023-09-17T01:07:21.743Z,101057.72
2023-09-17T01:08:26.364Z,101063.03
2023-09-17T01:09:30.892Z,101056.94
2023-09-17T01:10:40.879Z,101053.25
2023-09-17T01:11:43.785Z,101057.72
2023-09-17T01:12:46.970Z,101056.69
2023-09-17T01:13:52.911Z,101057.50
2023-09-17T01:14:55.983Z,101051.19
2023-09-17T01:16:00.452Z,101051.97
2023-09-17T01:17:06.889Z,101057.28
2023-09-17T01:18:11.757Z,101054.63
2023-09-17T01:19:34.786Z,101055.44
2023-09-17T01:21:02.748Z,101058.88
2023-09-17T01:22:14.122Z,101058.88
2023-09-17T01:24:14.286Z,101051.97
2023-09-17T01:25:59.380Z,101059.13
2023-09-17T01:27:06.924Z,101059.94
2023-09-17T01:28:15.306Z,101057.28
2023-09-17T01:29:24.804Z,101063.13
2023-09-17T01:30:26.794Z,101060.72
2023-09-17T01:31:29.115Z,101060.97
2023-09-17T01:32:31.871Z,101060.13
2023-09-17T01:33:35.724Z,101060.13
2023-09-17T01:34:42.865Z,101067.28
2023-09-17T01:36:15.076Z,101056.94
2023-09-17T01:37:40.552Z,101064.06
2023-09-17T01:38:53.442Z,101067.53
2023-09-17T01:40:06.391Z,101064.06
2023-09-17T01:41:10.134Z,101063.53
2023-09-17T01:42:15.213Z,101062.94
2023-09-17T01:43:20.644Z,101066.84
2023-09-17T01:44:25.371Z,101060.97
2023-09-17T01:45:30.371Z,101063.03
2023-09-17T01:46:36.244Z,101065.94
2023-09-17T01:47:39.873Z,101063.53
2023-09-17T01:48:43.903Z,101060.06
2023-09-17T01:49:47.553Z,101066.41
2023-09-17T01:50:51.417Z,101065.81
2023-09-17T01:51:57.212Z,101070.31
2023-09-17T01:53:01.076Z,101058.38
2023-09-17T01:54:03.144Z,101068.38
2023-09-17T01:55:05.988Z,101077.34
2023-09-17T01:56:07.919Z,101074.16
2023-09-17T01:57:10.624Z,101070.94
2023-09-17T01:58:12.644Z,101073.81
2023-09-17T01:59:15.842Z,101072.19
2023-09-17T02:00:20.483Z,101076.69
2023-09-17T02:01:23.149Z,101070.03
2023-09-17T02:02:25.875Z,101067.84
2023-09-17T02:03:30.258Z,101076.25
2023-09-17T02:04:32.373Z,101067.53
2023-09-17T02:05:34.307Z,101074.88
2023-09-17T02:06:37.469Z,101070.84
2023-09-17T02:07:39.701Z,101075.56
2023-09-17T02:08:42.586Z,101077.41
2023-09-17T02:09:45.698Z,101075.56
2023-09-17T02:10:47.678Z,101068.91
2023-09-17T02:11:51.294Z,101070.75
2023-09-17T02:12:53.274Z,101070.19
2023-09-17T02:13:55.367Z,101071.19
2023-09-17T02:14:57.297Z,101076.97
2023-09-17T02:15:59.302Z,101069.84
2023-09-17T02:17:01.230Z,101073.75
2023-09-17T02:18:04.502Z,101076.41
2023-09-17T02:19:06.373Z,101066.84
2023-09-17T02:20:12.313Z,101073.16
2023-09-17T02:21:14.357Z,101076.63
2023-09-17T02:22:16.318Z,101080.06
2023-09-17T02:23:18.353Z,101077.66
2023-09-17T02:24:21.138Z,101071.56
2023-09-17T02:25:23.153Z,101078.72
2023-09-17T02:26:25.117Z,101075.00
2023-09-17T02:27:26.966Z,101077.91
2023-09-17T02:28:28.982Z,101075.50
2023-09-17T02:29:30.972Z,101077.66
2023-09-17T02:30:32.980Z,101077.91
2023-09-17T02:31:34.961Z,101074.44
2023-09-17T02:32:38.691Z,101074.44
2023-09-17T02:33:42.133Z,101078.13
2023-09-17T02:34:44.066Z,101079.97
2023-09-17T02:35:46.024Z,101075.69
2023-09-17T02:36:47.977Z,101070.41
2023-09-17T02:37:51.117Z,101069.84
2023-09-17T02:38:53.377Z,101071.69
2023-09-17T02:39:55.255Z,101080.66
2023-09-17T02:40:57.230Z,101072.97
2023-09-17T02:42:00.313Z,101079.28
2023-09-17T02:43:02.800Z,101074.47
2023-09-17T02:44:05.027Z,101079.75
2023-09-17T02:45:10.107Z,101080.00
2023-09-17T02:46:12.479Z,101075.94
2023-09-17T02:47:14.446Z,101071.69
2023-09-17T02:48:16.871Z,101077.00
2023-09-17T02:49:22.713Z,101074.34
2023-09-17T02:50:24.723Z,101070.66
2023-09-17T02:51:28.705Z,101074.34
2023-09-17T02:52:30.798Z,101072.50
2023-09-17T02:53:32.730Z,101067.22
2023-09-17T02:54:35.745Z,101069.84
2023-09-17T02:55:37.728Z,101073.31
2023-09-17T02:56:39.602Z,101066.97
2023-09-17T02:57:41.496Z,101067.56
2023-09-17T02:58:43.472Z,101064.91
2023-09-17T02:59:45.509Z,101063.06
2023-09-17T03:00:47.560Z,101066.53
2023-09-17T03:01:49.619Z,101064.13
2023-09-17T03:02:55.437Z,101063.06
2023-09-17T03:03:57.828Z,101067.78
2023-09-17T03:05:00.881Z,101061.91
2023-09-17T03:06:06.618Z,101075.16
2023-09-17T03:07:08.735Z,101071.94
2023-09-17T03:08:10.822Z,101069.75
2023-09-17T03:09:15.162Z,101083.19
2023-09-17T03:10:19.965Z,101073.91
2023-09-17T03:11:22.337Z,101072.50
2023-09-17T03:12:24.268Z,101070.09
2023-09-17T03:13:26.238Z,101073.78
2023-09-17T03:14:28.165Z,101081.13
2023-09-17T03:15:30.351Z,101078.47
2023-09-17T03:16:32.465Z,101075.03
2023-09-17T03:17:38.530Z,101077.66
2023-09-17T03:18:40.845Z,101078.72
2023-09-17T03:19:43.587Z,101079.75
2023-09-17T03:20:45.553Z,101077.75
2023-09-17T03:21:47.542Z,101074.53
2023-09-17T03:22:50.259Z,101080.06
2023-09-17T03:23:53.519Z,101077.63
2023-09-17T03:25:03.299Z,101074.44
2023-09-17T03:26:10.753Z,101074.91
2023-09-17T03:27:12.721Z,101076.13
2023-09-17T03:28:14.769Z,101075.56
2023-09-17T03:29:17.716Z,101076.59
2023-09-17T03:30:19.872Z,101071.53
2023-09-17T03:31:21.850Z,101075.22
2023-09-17T03:32:24.634Z,101070.16
2023-09-17T03:33:27.538Z,101074.88
2023-09-17T03:34:29.685Z,101075.09
2023-09-17T03:35:31.801Z,101074.50
2023-09-17T03:36:36.494Z,101079.56
2023-09-17T03:37:38.488Z,101078.19
2023-09-17T03:38:40.797Z,101074.75
2023-09-17T03:40:09.028Z,101079.22
2023-09-17T03:41:12.089Z,101078.44
2023-09-17T03:42:15.044Z,101080.28
2023-09-17T03:43:18.196Z,101074.97
2023-09-17T03:44:21.832Z,101083.91
2023-09-17T03:45:25.171Z,101075.19
2023-09-17T03:46:28.392Z,101072.78
2023-09-17T03:47:31.511Z,101076.22
2023-09-17T03:48:34.591Z,101071.19
2023-09-17T03:49:39.489Z,101068.78
2023-09-17T03:50:43.837Z,101073.00
2023-09-17T03:51:46.376Z,101067.97
2023-09-17T03:52:55.126Z,101067.38
2023-09-17T03:53:57.852Z,101072.09
2023-09-17T03:55:00.121Z,101073.94
2023-09-17T03:56:02.202Z,101074.16
2023-09-17T03:57:06.000Z,101077.00
2023-09-17T03:58:10.245Z,101083.31
2023-09-17T03:59:15.813Z,101079.06
2023-09-17T04:00:19.091Z,101087.00
2023-09-17T04:01:22.058Z,101079.31
2023-09-17T04:02:24.399Z,101083.44
2023-09-17T04:03:26.643Z,101080.41
2023-09-17T04:04:30.160Z,101084.91
2023-09-17T04:05:32.238Z,101076.16
2023-09-17T04:06:35.670Z,101093.06
2023-09-17T04:07:40.556Z,101089.84
2023-09-17T04:08:42.474Z,101088.66
2023-09-17T04:09:44.353Z,101086.69
2023-09-17T04:10:46.396Z,101092.22
2023-09-17T04:11:48.362Z,101090.03
2023-09-17T04:12:50.345Z,101091.28
2023-09-17T04:13:52.434Z,101086.44
2023-09-17T04:14:54.560Z,101090.09
2023-09-17T04:15:56.458Z,101090.31
2023-09-17T04:17:06.007Z,101091.13
2023-09-17T04:18:08.126Z,101088.16
2023-09-17T04:19:11.081Z,101090.78
2023-09-17T04:20:20.105Z,101090.78
2023-09-17T04:21:22.263Z,101089.75
2023-09-17T04:22:24.905Z,101086.06
2023-09-17T04:23:27.059Z,101093.78
2023-09-17T04:24:29.816Z,101091.94
2023-09-17T04:25:33.407Z,101094.38
2023-09-17T04:26:35.833Z,101096.78
2023-09-17T04:27:42.806Z,101098.38
2023-09-17T04:28:47.310Z,101105.06
2023-09-17T04:29:49.368Z,101098.16
2023-09-17T04:30:51.291Z,101092.06
2023-09-17T04:31:53.228Z,101099.44
2023-09-17T04:32:56.281Z,101103.09
2023-09-17T04:33:58.890Z,101101.25
2023-09-17T04:35:01.059Z,101106.78
2023-09-17T04:36:04.583Z,101099.84
2023-09-17T04:37:08.086Z,101105.13
2023-09-17T04:38:11.284Z,101101.94
2023-09-17T04:39:15.211Z,101105.03
2023-09-17T04:40:19.197Z,101100.31
2023-09-17T04:41:21.568Z,101106.16
2023-09-17T04:42:23.454Z,101103.53
2023-09-17T04:43:27.406Z,101102.28
2023-09-17T04:44:29.555Z,101101.25
2023-09-17T04:45:39.874Z,101101.03
2023-09-17T04:47:05.092Z,101107.91
2023-09-17T04:48:07.776Z,101110.34
2023-09-17T04:49:11.110Z,101107.72
2023-09-17T04:50:13.828Z,101107.91
2023-09-17T04:51:17.822Z,101107.13
2023-09-17T04:52:20.252Z,101107.91
2023-09-17T04:53:22.149Z,101110.56
2023-09-17T04:54:25.212Z,101107.91
2023-09-17T04:55:27.618Z,101107.13
2023-09-17T04:56:33.602Z,101105.50
2023-09-17T04:57:37.117Z,101114.25
2023-09-17T04:58:40.056Z,101114.00
2023-09-17T04:59:42.136Z,101115.66
2023-09-17T05:00:45.728Z,101121.50
2023-09-17T05:01:49.927Z,101116.22
2023-09-17T05:02:52.020Z,101115.75
2023-09-17T05:03:56.038Z,101121.25
2023-09-17T05:04:58.326Z,101117.38
2023-09-17T05:06:00.206Z,101115.56
2023-09-17T05:07:04.645Z,101128.53
2023-09-17T05:08:06.737Z,101121.63
2023-09-17T05:09:09.433Z,101119.81
2023-09-17T05:10:11.334Z,101116.94
2023-09-17T05:11:13.475Z,101126.22
2023-09-17T05:12:15.610Z,101120.94
2023-09-17T05:13:18.772Z,101124.19
2023-09-17T05:14:22.393Z,101123.97
2023-09-17T05:15:26.680Z,101119.47
2023-09-17T05:16:31.400Z,101126.38
2023-09-17T05:17:35.670Z,101129.63
2023-09-17T05:18:38.677Z,101120.03
2023-09-17T05:19:40.609Z,101122.50
2023-09-17T05:20:45.505Z,101130.41
2023-09-17T05:21:47.695Z,101119.84
2023-09-17T05:22:49.812Z,101127.78
2023-09-17T05:23:52.111Z,101125.94
2023-09-17T05:24:54.618Z,101129.16
2023-09-17T05:25:57.540Z,101128.34
2023-09-17T05:27:02.127Z,101135.22
2023-09-17T05:28:07.851Z,101129.72
2023-09-17T05:29:13.556Z,101130.31
2023-09-17T05:30:15.573Z,101126.88
2023-09-17T05:31:17.640Z,101130.09
2023-09-17T05:32:19.616Z,101122.72
2023-09-17T05:33:21.555Z,101127.81
2023-09-17T05:34:23.815Z,101120.69
2023-09-17T05:35:25.990Z,101125.50
2023-09-17T05:36:28.037Z,101127.91
2023-09-17T05:37:30.936Z,101122.63
2023-09-17T05:38:35.327Z,101129.31
2023-09-17T05:39:38.783Z,101132.31
2023-09-17T05:40:41.221Z,101132.91
2023-09-17T05:41:44.112Z,101129.59
2023-09-17T05:42:47.544Z,101133.38
2023-09-17T05:43:51.210Z,101134.53
2023-09-17T05:44:54.563Z,101130.84
2023-09-17T05:45:57.964Z,101138.56
2023-09-17T05:47:06.608Z,101137.75
2023-09-17T05:48:08.739Z,101145.25
2023-09-17T05:49:12.019Z,101134.88
2023-09-17T05:50:15.211Z,101151.31
2023-09-17T05:51:19.148Z,101140.16
2023-09-17T05:52:22.353Z,101146.72
2023-09-17T05:53:24.265Z,101146.72
2023-09-17T05:54:26.493Z,101151.19
2023-09-17T05:55:30.058Z,101156.25
2023-09-17T05:56:32.667Z,101150.97
2023-09-17T05:57:35.235Z,101150.97
2023-09-17T05:58:39.664Z,101156.84
2023-09-17T05:59:43.519Z,101157.66
2023-09-17T06:00:45.469Z,101155.00
2023-09-17T06:01:47.615Z,101158.47
2023-09-17T06:02:49.663Z,101162.47
2023-09-17T06:03:53.121Z,101160.44
2023-09-17T06:04:56.031Z,101164.69
2023-09-17T06:05:58.766Z,101162.59
2023-09-17T06:07:00.938Z,101161.56
2023-09-17T06:08:03.210Z,101168.28
2023-09-17T06:09:06.122Z,101162.53
2023-09-17T06:10:09.061Z,101163.69
2023-09-17T06:11:12.567Z,101157.94
2023-09-17T06:12:16.475Z,101163.34
2023-09-17T06:13:19.430Z,101163.91
2023-09-17T06:14:21.446Z,101159.47
2023-09-17T06:15:23.317Z,101159.22
2023-09-17T06:16:25.224Z,101163.25
2023-09-17T06:17:27.390Z,101166.47
2023-09-17T06:18:33.397Z,101169.47
2023-09-17T06:19:38.501Z,101166.38
2023-09-17T06:20:40.773Z,101162.44
2023-09-17T06:21:44.618Z,101168.91
2023-09-17T06:22:48.391Z,101165.78
2023-09-17T06:23:50.732Z,101169.81
2023-09-17T06:24:53.224Z,101173.03
2023-09-17T06:25:55.254Z,101172.56
2023-09-17T06:26:57.185Z,101171.31
2023-09-17T06:27:59.064Z,101175.31
2023-09-17T06:29:01.327Z,101171.44
2023-09-17T06:30:03.760Z,101174.41
2023-09-17T06:31:08.631Z,101178.44
2023-09-17T06:32:11.870Z,101174.53
2023-09-17T06:33:13.919Z,101171.44
2023-09-17T06:34:16.105Z,101174.41
2023-09-17T06:35:18.640Z,101166.00
2023-09-17T06:36:22.589Z,101175.06
2023-09-17T06:37:24.840Z,101179.13
2023-09-17T06:38:27.375Z,101175.19
2023-09-17T06:39:29.794Z,101176.78
2023-09-17T06:40:31.911Z,101178.75
2023-09-17T06:41:37.377Z,101179.09
2023-09-17T06:42:41.431Z,101182.31
2023-09-17T06:43:44.501Z,101178.19
2023-09-17T06:44:46.574Z,101184.88
2023-09-17T06:45:48.516Z,101187.06
2023-09-17T06:46:51.822Z,101180.47
2023-09-17T06:47:53.969Z,101192.22
2023-09-17T06:48:56.237Z,101187.25
2023-09-17T06:49:58.232Z,101184.94
2023-09-17T06:51:00.273Z,101187.16
2023-09-17T06:52:02.179Z,101179.50
2023-09-17T06:53:05.382Z,101185.97
2023-09-17T06:54:07.681Z,101184.44
2023-09-17T06:55:10.530Z,101191.91
2023-09-17T06:56:16.966Z,101183.72
2023-09-17T06:57:19.010Z,101184.06
2023-09-17T06:58:20.997Z,101193.97
2023-09-17T06:59:22.955Z,101182.88
2023-09-17T07:00:24.823Z,101180.00
2023-09-17T07:01:26.907Z,101188.84
2023-09-17T07:02:28.888Z,101184.13
2023-09-17T07:03:31.449Z,101186.63
2023-09-17T07:04:33.488Z,101181.34
2023-09-17T07:05:35.429Z,101181.88
2023-09-17T07:06:37.414Z,101186.47
2023-09-17T07:07:39.406Z,101181.72
2023-09-17T07:08:41.525Z,101189.22
2023-09-17T07:09:44.226Z,101188.19
2023-09-17T07:10:46.226Z,101192.19
2023-09-17T07:11:48.185Z,101188.50
2023-09-17T07:12:51.665Z,101189.28
2023-09-17T07:13:54.920Z,101189.06
2023-09-17T07:14:57.969Z,101191.25
2023-09-17T07:16:00.276Z,101188.16
2023-09-17T07:17:02.316Z,101189.84
2023-09-17T07:18:05.117Z,101186.22
2023-09-17T07:19:07.081Z,101189.53
2023-09-17T07:20:09.893Z,101193.06
2023-09-17T07:21:12.051Z,101198.22
2023-09-17T07:22:16.040Z,101194.84
2023-09-17T07:23:18.312Z,101198.38
2023-09-17T07:24:20.224Z,101194.44
2023-09-17T07:25:22.319Z,101192.09
2023-09-17T07:26:24.781Z,101191.34
2023-09-17T07:27:31.828Z,101189.59
2023-09-17T07:28:34.099Z,101195.22
2023-09-17T07:29:36.065Z,101193.69
2023-09-17T07:30:38.235Z,101193.19
2023-09-17T07:31:43.028Z,101193.75
2023-09-17T07:32:45.147Z,101194.06
2023-09-17T07:33:47.221Z,101205.25
2023-09-17T07:34:49.281Z,101199.72
2023-09-17T07:35:51.457Z,101205.31
2023-09-17T07:36:54.265Z,101197.72
2023-09-17T07:37:56.507Z,101197.53
2023-09-17T07:38:58.397Z,101199.47
2023-09-17T07:40:05.429Z,101202.75
2023-09-17T07:41:07.523Z,101198.03
2023-09-17T07:42:09.470Z,101194.94
2023-09-17T07:43:11.915Z,101196.13
2023-09-17T07:44:13.719Z,101198.66
2023-09-17T07:45:15.729Z,101192.97
2023-09-17T07:46:17.656Z,101199.25
2023-09-17T07:47:19.713Z,101196.25
2023-09-17T07:48:22.736Z,101186.28
2023-09-17T07:49:28.273Z,101196.59
2023-09-17T07:50:30.693Z,101199.78
2023-09-17T07:51:32.631Z,101194.13
2023-09-17T07:52:34.648Z,101204.44
2023-09-17T07:53:36.645Z,101195.75
2023-09-17T07:54:41.460Z,101190.69
2023-09-17T07:55:43.336Z,101196.84
2023-09-17T07:56:45.984Z,101190.66
2023-09-17T07:57:47.937Z,101189.81
2023-09-17T07:58:49.878Z,101192.91
2023-09-17T07:59:53.460Z,101187.75
2023-09-17T08:00:55.396Z,101186.25
2023-09-17T08:01:59.978Z,101194.44
2023-09-17T08:03:03.246Z,101195.34
2023-09-17T08:04:05.734Z,101183.97
2023-09-17T08:05:08.570Z,101190.72
2023-09-17T08:06:12.550Z,101190.22
2023-09-17T08:07:14.660Z,101197.50
2023-09-17T08:08:16.751Z,101198.63
2023-09-17T08:09:18.949Z,101198.16
2023-09-17T08:10:22.878Z,101193.66
2023-09-17T08:11:30.510Z,101187.34
2023-09-17T08:12:32.505Z,101196.94
2023-09-17T08:13:34.531Z,101193.75
2023-09-17T08:14:37.611Z,101195.41
2023-09-17T08:15:40.336Z,101193.63
2023-09-17T08:16:42.545Z,101195.69
2023-09-17T08:17:44.819Z,101195.88
2023-09-17T08:18:46.826Z,101192.50
2023-09-17T08:19:48.779Z,101194.16
2023-09-17T08:20:50.656Z,101187.75
2023-09-17T08:21:52.597Z,101187.75
2023-09-17T08:22:54.535Z,101181.00
2023-09-17T08:23:57.088Z,101182.84
2023-09-17T08:24:59.028Z,101181.16
2023-09-17T08:26:00.954Z,101181.66
2023-09-17T08:27:02.967Z,101180.34
2023-09-17T08:28:09.332Z,101186.91
2023-09-17T08:29:12.776Z,101183.63
2023-09-17T08:30:16.660Z,101185.44
2023-09-17T08:31:19.862Z,101176.84
2023-09-17T08:32:21.737Z,101179.25
2023-09-17T08:33:23.641Z,101181.53
2023-09-17T08:34:25.524Z,101181.22
2023-09-17T08:35:27.442Z,101183.50
2023-09-17T08:36:29.602Z,101181.13
2023-09-17T08:37:31.550Z,101185.03
2023-09-17T08:38:33.778Z,101181.13
2023-09-17T08:39:35.696Z,101185.44
2023-09-17T08:40:40.479Z,101178.88
2023-09-17T08:41:44.031Z,101178.16
2023-09-17T08:42:49.775Z,101183.66
2023-09-17T08:43:55.921Z,101183.25
2023-09-17T08:45:00.578Z,101181.06
2023-09-17T08:46:04.629Z,101181.81
2023-09-17T08:47:06.769Z,101178.72
2023-09-17T08:48:09.231Z,101182.22
2023-09-17T08:49:11.611Z,101179.22
2023-09-17T08:50:13.501Z,101179.31
2023-09-17T08:51:19.612Z,101180.09
2023-09-17T08:52:26.888Z,101176.41
2023-09-17T08:53:40.051Z,101174.63
2023-09-17T08:54:44.358Z,101180.91
2023-09-17T08:55:51.447Z,101173.34
2023-09-17T08:56:57.535Z,101175.63
2023-09-17T08:58:22.776Z,101176.56
2023-09-17T08:59:30.750Z,101172.91
2023-09-17T09:00:39.100Z,101169.84
2023-09-17T09:01:45.615Z,101171.53
2023-09-17T09:03:00.186Z,101171.75
2023-09-17T09:04:03.815Z,101175.09
2023-09-17T09:05:07.328Z,101169.00
2023-09-17T09:06:11.316Z,101162.53
2023-09-17T09:07:13.372Z,101169.84
2023-09-17T09:08:15.715Z,101172.25
2023-09-17T09:09:22.582Z,101173.78
2023-09-17T09:10:25.311Z,101171.56
2023-09-17T09:11:27.724Z,101171.19
2023-09-17T09:12:30.550Z,101171.91
2023-09-17T09:13:33.606Z,101175.28
2023-09-17T09:14:35.501Z,101177.16
2023-09-17T09:15:37.744Z,101174.31
2023-09-17T09:16:39.748Z,101168.81
2023-09-17T09:17:41.828Z,101176.13
2023-09-17T09:18:44.685Z,101175.88
2023-09-17T09:19:46.782Z,101172.31
2023-09-17T09:20:48.846Z,101174.84
2023-09-17T09:21:50.761Z,101171.25
2023-09-17T09:22:52.689Z,101173.19
2023-09-17T09:23:54.559Z,101174.66
2023-09-17T09:24:56.418Z,101166.13
2023-09-17T09:25:58.676Z,101167.31
2023-09-17T09:27:00.623Z,101163.84
2023-09-17T09:28:03.878Z,101171.19
2023-09-17T09:29:07.772Z,101167.09
2023-09-17T09:30:15.469Z,101167.47
2023-09-17T09:31:17.506Z,101171.44
2023-09-17T09:32:19.890Z,101166.19
2023-09-17T09:33:23.108Z,101166.03
2023-09-17T09:34:28.229Z,101168.25
2023-09-17T09:35:31.381Z,101173.06
2023-09-17T09:36:35.060Z,101170.50
2023-09-17T09:37:37.160Z,101167.31
2023-09-17T09:38:39.217Z,101164.31
2023-09-17T09:39:44.173Z,101169.72
2023-09-17T09:40:46.672Z,101173.16
2023-09-17T09:41:49.572Z,101173.44
2023-09-17T09:42:51.676Z,101160.81
2023-09-17T09:43:55.016Z,101167.09
2023-09-17T09:44:59.036Z,101170.56
2023-09-17T09:46:05.911Z,101168.31
2023-09-17T09:47:09.026Z,101167.13
2023-09-17T09:48:17.358Z,101163.16
2023-09-17T09:49:19.216Z,101165.53
2023-09-17T09:50:32.270Z,101167.84
2023-09-17T09:51:37.085Z,101167.44
2023-09-17T09:52:41.521Z,101158.00
2023-09-17T09:53:43.560Z,101161.88
2023-09-17T09:54:47.549Z,101163.44
2023-09-17T09:55:49.908Z,101163.97
2023-09-17T09:56:53.272Z,101159.56
2023-09-17T09:57:56.210Z,101157.19
2023-09-17T09:59:01.244Z,101161.00
2023-09-17T10:00:13.577Z,101160.47
2023-09-17T10:01:17.596Z,101159.97
2023-09-17T10:02:22.078Z,101155.38
2023-09-17T10:03:25.543Z,101160.16
2023-09-17T10:04:27.844Z,101165.75
2023-09-17T10:05:35.996Z,101155.19
2023-09-17T10:06:41.790Z,101156.94
2023-09-17T10:07:48.559Z,101161.72
2023-09-17T10:08:53.611Z,101156.03
2023-09-17T10:09:55.633Z,101156.81
2023-09-17T10:10:57.656Z,101159.22
2023-09-17T10:12:00.687Z,101162.22
2023-09-17T10:13:07.350Z,101157.13
2023-09-17T10:14:11.319Z,101160.44
2023-09-17T10:15:14.575Z,101160.75
2023-09-17T10:16:17.011Z,101156.78
2023-09-17T10:17:19.141Z,101153.41
2023-09-17T10:18:23.577Z,101158.84
2023-09-17T10:19:30.483Z,101153.09
2023-09-17T10:20:33.535Z,101151.94
2023-09-17T10:21:41.136Z,101153.16
2023-09-17T10:22:44.623Z,101156.53
2023-09-17T10:23:48.093Z,101143.00
2023-09-17T10:24:52.931Z,101144.22
2023-09-17T10:26:00.499Z,101142.72
2023-09-17T10:27:04.700Z,101148.69
2023-09-17T10:28:08.765Z,101151.47
2023-09-17T10:29:15.230Z,101152.56
2023-09-17T10:30:19.710Z,101149.75
2023-09-17T10:31:23.489Z,101145.94
2023-09-17T10:32:27.444Z,101148.94
2023-09-17T10:33:33.677Z,101145.22
2023-09-17T10:34:37.217Z,101147.19
2023-09-17T10:35:40.680Z,101151.53
2023-09-17T10:36:44.284Z,101145.84
2023-09-17T10:37:48.394Z,101152.25
2023-09-17T10:38:56.024Z,101154.06
2023-09-17T10:39:59.013Z,101155.06
2023-09-17T10:41:03.607Z,101155.56
2023-09-17T10:42:09.477Z,101144.22
2023-09-17T10:43:13.267Z,101157.38
2023-09-17T10:44:19.168Z,101161.38
2023-09-17T10:45:23.606Z,101159.84
2023-09-17T10:46:29.560Z,101154.44
2023-09-17T10:47:36.588Z,101154.81
2023-09-17T10:48:42.078Z,101158.34
2023-09-17T10:49:45.691Z,101164.53
2023-09-17T10:50:49.367Z,101159.16
2023-09-17T10:51:54.426Z,101155.38
2023-09-17T10:52:56.618Z,101159.16
2023-09-17T10:53:58.527Z,101159.94
2023-09-17T10:55:01.031Z,101163.13
2023-09-17T10:56:11.818Z,101160.97
2023-09-17T10:57:32.930Z,101160.69
2023-09-17T10:58:50.032Z,101162.56
2023-09-17T10:59:55.194Z,101167.69
2023-09-17T11:01:01.526Z,101161.03
2023-09-17T11:02:06.842Z,101164.03
2023-09-17T11:03:12.354Z,101157.56
2023-09-17T11:04:24.631Z,101164.59
2023-09-17T11:05:31.332Z,101157.63
2023-09-17T11:06:36.050Z,101157.13
2023-09-17T11:07:41.054Z,101151.78
2023-09-17T11:08:48.176Z,101155.50
2023-09-17T11:09:50.607Z,101157.69
2023-09-17T11:10:52.603Z,101151.00
2023-09-17T11:11:54.678Z,101165.78
2023-09-17T11:12:57.485Z,101159.13
2023-09-17T11:14:00.144Z,101162.38
2023-09-17T11:15:02.313Z,101159.50
2023-09-17T11:16:04.222Z,101162.75
2023-09-17T11:17:10.333Z,101161.75
2023-09-17T11:18:12.688Z,101161.50
2023-09-17T11:19:17.861Z,101158.34
2023-09-17T11:20:22.107Z,101164.75
2023-09-17T11:21:24.101Z,101158.09
2023-09-17T11:22:31.290Z,101159.97
2023-09-17T11:23:59.841Z,101162.44
2023-09-17T11:25:04.396Z,101163.03
2023-09-17T11:26:08.727Z,101161.44
2023-09-17T11:27:12.880Z,101160.41
2023-09-17T11:28:16.513Z,101158.81
2023-09-17T11:29:18.471Z,101160.69
2023-09-17T11:30:24.925Z,101157.72
2023-09-17T11:31:28.212Z,101166.00
2023-09-17T11:32:30.354Z,101155.78
2023-09-17T11:33:33.179Z,101152.22
2023-09-17T11:34:39.973Z,101152.16
2023-09-17T11:35:42.140Z,101157.44
2023-09-17T11:36:47.343Z,101153.91
2023-09-17T11:37:50.829Z,101153.03
2023-09-17T11:38:53.144Z,101157.81
2023-09-17T11:39:55.513Z,101150.28
2023-09-17T11:41:11.040Z,101157.75
2023-09-17T11:42:14.662Z,101164.19
2023-09-17T11:43:17.188Z,101156.75
2023-09-17T11:44:21.945Z,101156.03
2023-09-17T11:45:23.877Z,101154.25
2023-09-17T11:46:26.234Z,101157.53
2023-09-17T11:47:28.454Z,101151.94
2023-09-17T11:48:31.616Z,101156.81
2023-09-17T11:49:35.989Z,101160.28
2023-09-17T11:50:38.094Z,101159.47
2023-09-17T11:51:48.542Z,101159.97
2023-09-17T11:53:08.527Z,101155.41
2023-09-17T11:54:16.514Z,101155.72
2023-09-17T11:55:24.562Z,101148.75
2023-09-17T11:56:33.172Z,101158.97
2023-09-17T11:57:35.443Z,101153.88
2023-09-17T11:58:37.661Z,101151.50
2023-09-17T11:59:39.913Z,101149.38
2023-09-17T12:00:42.365Z,101155.84
2023-09-17T12:01:54.554Z,101155.84
2023-09-17T12:02:56.788Z,101155.34
2023-09-17T12:04:00.171Z,101154.00
2023-09-17T12:05:02.395Z,101157.78
2023-09-17T12:06:06.051Z,101155.94
2023-09-17T12:07:13.634Z,101157.34
2023-09-17T12:08:21.433Z,101153.34
2023-09-17T12:09:31.457Z,101154.72